createdAt,value
2023-01-10T00:01:06.172Z,3.85
2023-01-10T00:04:47.881Z,3.90
2023-01-10T00:08:29.776Z,3.55
2023-01-10T00:12:30.234Z,4.03
2023-01-10T00:16:11.997Z,4.40
2023-01-10T00:19:54.828Z,4.55
2023-01-10T00:23:36.496Z,4.38
2023-01-10T00:27:22.674Z,3.67
2023-01-10T00:31:06.797Z,3.53
2023-01-10T00:34:48.548Z,3.63
2023-01-10T00:38:31.126Z,3.47
2023-01-10T00:42:31.499Z,3.33
2023-01-10T00:46:13.366Z,2.85
2023-01-10T00:49:55.403Z,4.28
2023-01-10T00:53:37.088Z,3.20
2023-01-10T00:57:18.757Z,2.75
2023-01-10T01:01:01.889Z,3.88
2023-01-10T01:04:43.578Z,3.55
2023-01-10T01:08:25.559Z,3.63
2023-01-10T01:12:07.490Z,3.00
2023-01-10T01:15:49.442Z,3.70
2023-01-10T01:19:31.275Z,3.55
2023-01-10T01:23:13.590Z,3.80
2023-01-10T01:26:55.320Z,3.15
2023-01-10T01:30:37.444Z,3.67
2023-01-10T01:34:19.135Z,4.13
2023-01-10T01:38:01.026Z,3.88
2023-01-10T01:41:58.338Z,3.80
2023-01-10T01:45:40.342Z,3.45
2023-01-10T01:49:23.071Z,2.90
2023-01-10T01:53:19.257Z,2.95
2023-01-10T01:57:12.535Z,2.92
2023-01-10T02:00:55.644Z,2.92
2023-01-10T02:05:10.084Z,2.88
2023-01-10T02:09:33.025Z,3.20
2023-01-10T02:13:15.945Z,2.65
2023-01-10T02:16:57.625Z,3.10
2023-01-10T02:20:54.304Z,2.75
2023-01-10T02:24:47.858Z,2.35
2023-01-10T02:28:38.811Z,2.75
2023-01-10T02:32:43.931Z,2.80
2023-01-10T02:37:07.347Z,2.80
2023-01-10T02:41:15.500Z,2.97
2023-01-10T02:45:17.598Z,3.47
2023-01-10T02:48:59.399Z,3.83
2023-01-10T02:52:41.070Z,2.90
2023-01-10T02:56:30.733Z,3.38
2023-01-10T03:00:22.046Z,2.85
2023-01-10T03:04:21.937Z,2.88
2023-01-10T03:08:26.569Z,3.38
2023-01-10T03:12:12.743Z,2.83
2023-01-10T03:15:54.562Z,3.50
2023-01-10T03:19:59.684Z,3.88
2023-01-10T03:23:41.624Z,3.08
2023-01-10T03:27:51.760Z,3.55
2023-01-10T03:31:43.743Z,2.70
2023-01-10T03:35:33.539Z,3.22
2023-01-10T03:39:19.904Z,3.03
2023-01-10T03:43:39.316Z,4.18
2023-01-10T03:47:39.317Z,4.28
2023-01-10T03:51:21.147Z,3.67
2023-01-10T03:55:05.427Z,4.15
2023-01-10T03:58:47.139Z,3.75
2023-01-10T04:02:30.711Z,3.50
2023-01-10T04:06:12.373Z,3.38
2023-01-10T04:09:54.459Z,3.72
2023-01-10T04:13:36.220Z,4.18
2023-01-10T04:17:17.967Z,3.58
2023-01-10T04:20:59.786Z,3.60
2023-01-10T04:24:41.696Z,3.13
2023-01-10T04:28:24.696Z,3.72
2023-01-10T04:32:06.439Z,3.40
2023-01-10T04:35:51.662Z,4.65
2023-01-10T04:39:33.381Z,3.83
2023-01-10T04:43:15.053Z,3.65
2023-01-10T04:46:56.751Z,4.82
2023-01-10T04:50:38.493Z,4.35
2023-01-10T04:54:21.401Z,4.45
2023-01-10T04:58:03.139Z,4.63
2023-01-10T05:01:45.179Z,3.63
2023-01-10T05:05:28.404Z,3.83
2023-01-10T05:09:10.395Z,2.78
2023-01-10T05:12:52.097Z,3.50
2023-01-10T05:16:33.920Z,3.47
2023-01-10T05:20:16.012Z,2.83
2023-01-10T05:23:57.776Z,2.78
2023-01-10T05:27:42.202Z,3.55
2023-01-10T05:31:24.168Z,4.25
2023-01-10T05:35:06.403Z,3.78
2023-01-10T05:38:48.374Z,3.45
2023-01-10T05:42:30.047Z,3.22
2023-01-10T05:46:11.871Z,3.28
2023-01-10T05:49:53.791Z,3.22
2023-01-10T05:53:35.495Z,3.78
2023-01-10T05:57:19.097Z,3.90
2023-01-10T06:01:01.243Z,3.58
2023-01-10T06:04:43.417Z,2.95
2023-01-10T06:08:25.188Z,3.33
2023-01-10T06:12:06.860Z,2.63
2023-01-10T06:15:48.689Z,2.85
2023-01-10T06:19:30.630Z,2.30
2023-01-10T06:23:12.506Z,2.05
2023-01-10T06:26:54.204Z,2.10
2023-01-10T06:30:36.062Z,1.80
2023-01-10T06:34:17.740Z,1.70
2023-01-10T06:37:59.577Z,1.55
2023-01-10T06:41:41.387Z,1.50
2023-01-10T06:45:23.104Z,1.20
2023-01-10T06:49:05.368Z,0.90
2023-01-10T06:52:47.136Z,1.10
2023-01-10T06:56:28.816Z,0.77
2023-01-10T07:00:11.849Z,0.77
2023-01-10T07:03:53.562Z,0.80
2023-01-10T07:07:35.460Z,0.70
2023-01-10T07:11:17.830Z,0.47
2023-01-10T07:14:59.507Z,0.50
2023-01-10T07:18:43.197Z,0.60
2023-01-10T07:22:24.958Z,0.40
2023-01-10T07:26:10.684Z,0.60
2023-01-10T07:29:52.480Z,0.50
2023-01-10T07:33:34.155Z,0.20
2023-01-10T07:37:15.818Z,0.30
2023-01-10T07:40:57.596Z,0.50
2023-01-10T07:44:39.265Z,1.05
2023-01-10T07:48:21.171Z,0.40
2023-01-10T07:52:02.864Z,0.60
2023-01-10T07:55:46.061Z,0.38
2023-01-10T07:59:27.802Z,0.40
2023-01-10T08:03:12.911Z,0.40
2023-01-10T08:06:55.165Z,0.40
2023-01-10T08:10:37.411Z,0.50
2023-01-10T08:14:19.100Z,0.50
2023-01-10T08:18:04.760Z,0.52
2023-01-10T08:21:46.963Z,0.30
2023-01-10T08:25:28.643Z,0.30
2023-01-10T08:29:10.773Z,0.32
2023-01-10T08:32:52.532Z,0.30
2023-01-10T08:36:34.208Z,0.65
2023-01-10T08:40:15.968Z,0.40
2023-01-10T08:43:57.653Z,0.60
2023-01-10T08:47:39.410Z,1.27
2023-01-10T08:51:21.321Z,0.63
2023-01-10T08:55:03.044Z,0.38
2023-01-10T08:58:44.922Z,0.82
2023-01-10T09:02:26.655Z,0.60
2023-01-10T09:06:08.695Z,0.75
2023-01-10T09:09:51.720Z,0.47
2023-01-10T09:13:33.648Z,0.77
2023-01-10T09:17:15.304Z,0.85
2023-01-10T09:20:57.358Z,0.50
2023-01-10T09:24:39.292Z,0.50
2023-01-10T09:28:21.778Z,0.40
2023-01-10T09:32:03.664Z,0.50
2023-01-10T09:35:45.435Z,0.52
2023-01-10T09:39:29.275Z,0.40
2023-01-10T09:47:21.641Z,0.70
2023-01-10T09:51:23.988Z,0.82
2023-01-10T09:55:34.032Z,0.85
2023-01-10T09:59:35.943Z,1.17
2023-01-10T10:04:06.129Z,1.23
2023-01-10T10:07:52.662Z,1.55
2023-01-10T10:12:00.950Z,1.50
2023-01-10T10:16:07.484Z,1.80
2023-01-10T10:20:18.533Z,1.73
2023-01-10T10:24:22.034Z,2.20
2023-01-10T10:28:19.558Z,1.80
2023-01-10T10:32:35.826Z,1.38
2023-01-10T10:36:27.020Z,1.67
2023-01-10T10:40:23.443Z,1.77
2023-01-10T10:44:39.181Z,1.77
2023-01-10T10:48:32.321Z,2.70
2023-01-10T10:52:26.145Z,2.23
2023-01-10T10:56:13.862Z,1.88
2023-01-10T10:59:55.863Z,2.65
2023-01-10T11:03:54.322Z,2.00
2023-01-10T11:07:36.917Z,1.77
2023-01-10T11:11:40.955Z,2.63
2023-01-10T11:15:45.226Z,2.67
2023-01-10T11:20:02.202Z,2.85
2023-01-10T11:23:53.043Z,3.08
2023-01-10T11:27:43.678Z,4.88
2023-01-10T11:31:28.945Z,3.28
2023-01-10T11:35:19.450Z,2.95
2023-01-10T11:39:02.265Z,3.85
2023-01-10T11:42:44.151Z,3.97
2023-01-10T11:46:26.157Z,4.43
2023-01-10T11:50:10.933Z,3.92
2023-01-10T11:54:00.221Z,4.32
2023-01-10T11:57:42.544Z,4.32
2023-01-10T12:01:39.432Z,4.80
2023-01-10T12:05:21.647Z,6.15
2023-01-10T12:09:03.647Z,5.13
2023-01-10T12:12:52.658Z,5.05
2023-01-10T12:16:34.702Z,5.70
2023-01-10T12:20:16.751Z,6.35
2023-01-10T12:24:00.931Z,5.68
2023-01-10T12:27:44.679Z,6.32
2023-01-10T12:35:14.056Z,7.03
2023-01-10T12:39:23.990Z,5.78
2023-01-10T12:43:39.370Z,7.20
2023-01-10T12:47:43.098Z,6.65
2023-01-10T12:51:26.668Z,6.82
2023-01-10T12:55:18.457Z,6.82
2023-01-10T12:59:11.140Z,6.78
2023-01-10T13:02:56.952Z,5.93
2023-01-10T13:06:39.917Z,7.18
2023-01-10T13:10:23.090Z,6.50
2023-01-10T13:14:04.759Z,6.32
2023-01-10T13:17:54.818Z,6.95
2023-01-10T13:21:40.945Z,7.10
2023-01-10T13:25:37.742Z,6.53
2023-01-10T13:29:24.629Z,6.35
2023-01-10T13:33:22.338Z,6.63
2023-01-10T13:37:32.118Z,5.03
2023-01-10T13:41:32.596Z,4.57
2023-01-10T13:45:17.894Z,5.28
2023-01-10T13:49:03.596Z,4.47
2023-01-10T13:52:45.332Z,4.70
2023-01-10T13:56:37.183Z,4.97
2023-01-10T14:00:45.892Z,6.22
2023-01-10T14:04:31.750Z,5.13
2023-01-10T14:08:18.021Z,5.38
2023-01-10T14:12:01.570Z,5.13
2023-01-10T14:15:45.780Z,5.03
2023-01-10T14:19:32.601Z,6.80
2023-01-10T14:23:20.219Z,6.30
2023-01-10T14:27:02.202Z,5.78
2023-01-10T14:30:44.060Z,6.88
2023-01-10T14:34:27.052Z,5.60
2023-01-10T14:38:09.087Z,4.83
2023-01-10T14:41:53.185Z,5.65
2023-01-10T14:45:53.454Z,4.28
2023-01-10T14:49:36.742Z,4.78
2023-01-10T14:53:30.796Z,6.22
2023-01-10T14:57:20.288Z,6.05
2023-01-10T15:01:03.265Z,4.95
2023-01-10T15:04:59.625Z,6.00
2023-01-10T15:08:42.962Z,6.32
2023-01-10T15:12:25.737Z,5.73
2023-01-10T15:16:07.933Z,6.43
2023-01-10T15:19:51.092Z,4.72
2023-01-10T15:23:40.312Z,5.40
2023-01-10T15:27:21.964Z,5.78
2023-01-10T15:31:05.079Z,5.18
2023-01-10T15:34:49.420Z,5.38
2023-01-10T15:38:34.204Z,5.25
2023-01-10T15:42:15.973Z,5.88
2023-01-10T15:45:58.757Z,6.18
2023-01-10T15:49:40.768Z,4.33
2023-01-10T15:53:22.536Z,4.40
2023-01-10T15:57:14.841Z,5.05
2023-01-10T16:00:57.509Z,6.15
2023-01-10T16:04:39.680Z,6.70
2023-01-10T16:08:23.826Z,5.63
2023-01-10T16:12:24.006Z,5.53
2023-01-10T16:16:08.874Z,4.97
2023-01-10T16:19:50.999Z,5.72
2023-01-10T16:23:33.202Z,5.10
2023-01-10T16:27:15.128Z,3.65
2023-01-10T16:30:57.097Z,4.15
2023-01-10T16:34:38.775Z,3.97
2023-01-10T16:38:20.678Z,3.83
2023-01-10T16:42:20.864Z,3.17
2023-01-10T16:46:03.850Z,2.50
2023-01-10T16:49:46.887Z,2.05
2023-01-10T16:53:28.581Z,2.30
2023-01-10T16:57:12.394Z,1.63
2023-01-10T17:00:54.381Z,1.65
2023-01-10T17:04:37.402Z,1.67
2023-01-10T17:08:20.875Z,1.30
2023-01-10T17:12:05.144Z,1.45
2023-01-10T17:15:46.822Z,1.77
2023-01-10T17:19:28.832Z,1.70
2023-01-10T17:23:11.690Z,2.25
2023-01-10T17:26:53.381Z,2.03
2023-01-10T17:30:35.306Z,2.55
2023-01-10T17:34:16.986Z,2.97
2023-01-10T17:37:58.652Z,2.50
2023-01-10T17:41:40.646Z,2.92
2023-01-10T17:45:22.352Z,3.58
2023-01-10T17:49:06.344Z,2.63
2023-01-10T17:52:48.041Z,2.70
2023-01-10T17:56:29.906Z,2.67
2023-01-10T18:00:12.385Z,3.15
2023-01-10T18:03:54.063Z,2.15
2023-01-10T18:07:35.955Z,2.90
2023-01-10T18:11:17.856Z,3.65
2023-01-10T18:15:00.720Z,4.75
2023-01-10T18:18:42.687Z,3.50
2023-01-10T18:22:43.198Z,2.47
2023-01-10T18:26:24.892Z,3.05
2023-01-10T18:30:07.051Z,2.58
2023-01-10T18:33:48.853Z,2.47
2023-01-10T18:37:30.548Z,2.53
2023-01-10T18:41:12.914Z,2.15
2023-01-10T18:44:54.597Z,2.17
2023-01-10T18:48:36.948Z,2.25
2023-01-10T18:52:21.139Z,1.70
2023-01-10T18:56:04.452Z,4.18
2023-01-10T18:59:46.627Z,1.67
2023-01-10T19:03:28.327Z,1.88
2023-01-10T19:07:10.008Z,1.98
2023-01-10T19:11:12.793Z,2.05
2023-01-10T19:14:55.439Z,2.80
2023-01-10T19:18:38.520Z,3.15
2023-01-10T19:22:22.759Z,2.60
2023-01-10T19:26:04.569Z,3.45
2023-01-10T19:29:49.686Z,2.45
2023-01-10T19:33:34.713Z,2.20
2023-01-10T19:37:16.577Z,1.90
2023-01-10T19:40:58.493Z,2.17
2023-01-10T19:44:40.191Z,1.80
2023-01-10T19:48:22.260Z,1.63
2023-01-10T19:52:04.594Z,1.85
2023-01-10T19:55:46.411Z,1.98
2023-01-10T19:59:30.136Z,1.90
2023-01-10T20:06:53.523Z,1.85
2023-01-10T20:10:35.287Z,1.80
2023-01-10T20:14:18.226Z,1.95
2023-01-10T20:17:59.990Z,1.20
2023-01-10T20:21:43.106Z,2.20
2023-01-10T20:25:24.853Z,1.70
2023-01-10T20:29:06.886Z,1.48
2023-01-10T20:32:49.664Z,2.00
2023-01-10T20:36:31.375Z,2.60
2023-01-10T20:40:13.585Z,1.95
2023-01-10T20:43:55.458Z,2.20
2023-01-10T20:47:37.163Z,2.30
2023-01-10T20:51:21.791Z,2.40
2023-01-10T20:55:03.748Z,1.40
2023-01-10T20:58:47.884Z,2.92
2023-01-10T21:02:29.658Z,1.50
2023-01-10T21:06:12.060Z,3.10
2023-01-10T21:09:54.460Z,2.05
2023-01-10T21:13:36.299Z,2.28
2023-01-10T21:17:18.129Z,2.30
2023-01-10T21:21:00.123Z,2.30
2023-01-10T21:24:42.919Z,1.77
2023-01-10T21:28:24.617Z,1.97
2023-01-10T21:32:08.022Z,2.17
2023-01-10T21:35:53.826Z,1.80
2023-01-10T21:39:35.774Z,2.35
2023-01-10T21:43:17.459Z,2.30
2023-01-10T21:46:59.224Z,2.88
2023-01-10T21:50:44.712Z,2.53
2023-01-10T21:54:26.523Z,2.80
2023-01-10T21:58:08.285Z,2.65
2023-01-10T22:01:50.202Z,2.88
2023-01-10T22:05:32.011Z,1.85
2023-01-10T22:09:13.795Z,2.63
2023-01-10T22:12:55.471Z,2.25
2023-01-10T22:16:37.190Z,2.78
2023-01-10T22:20:20.176Z,4.38
2023-01-10T22:24:01.872Z,2.63
2023-01-10T22:27:45.228Z,2.30
2023-01-10T22:31:28.351Z,3.25
2023-01-10T22:35:13.713Z,2.23
2023-01-10T22:38:55.595Z,2.85
2023-01-10T22:42:37.361Z,2.95
2023-01-10T22:46:19.295Z,2.90
2023-01-10T22:50:02.270Z,3.53
2023-01-10T22:53:48.327Z,2.80
2023-01-10T22:57:33.007Z,2.72
2023-01-10T23:01:20.478Z,3.28
2023-01-10T23:05:02.232Z,2.80
2023-01-10T23:08:44.239Z,3.05
2023-01-10T23:12:25.922Z,3.78
2023-01-10T23:16:09.789Z,3.50
2023-01-10T23:19:51.760Z,3.25
2023-01-10T23:23:33.439Z,3.15
2023-01-10T23:27:15.327Z,3.15
2023-01-10T23:30:57.142Z,2.85
2023-01-10T23:34:38.885Z,2.70
2023-01-10T23:38:20.592Z,2.97
2023-01-10T23:42:02.271Z,3.40
2023-01-10T23:45:44.275Z,2.90
2023-01-10T23:49:27.318Z,2.63
2023-01-10T23:53:09.205Z,3.15
2023-01-10T23:56:52.398Z,2.88
